sensor_id;sensor_type;location;lat;lon;timestamp;pressure;altitude;pressure_sealevel;temperature;humidity
75543;BME280;64129;53.508;10.476;2023-07-16T00:01:01;100296.56;;;21.27;63.89
75543;BME280;64129;53.508;10.476;2023-07-16T00:03:28;100283.63;;;21.19;65.05
75543;BME280;64129;53.508;10.476;2023-07-16T00:05:54;100263.06;;;21.29;64.99
75543;BME280;64129;53.508;10.476;2023-07-16T00:08:22;100280.31;;;21.03;65.97
75543;BME280;64129;53.508;10.476;2023-07-16T00:10:48;100299.22;;;21.03;65.95
75543;BME280;64129;53.508;10.476;2023-07-16T00:13:15;100322.84;;;21.25;65.18
75543;BME280;64129;53.508;10.476;2023-07-16T00:15:41;100324.56;;;21.13;65.42
75543;BME280;64129;53.508;10.476;2023-07-16T00:18:08;100317.22;;;21.15;64.74
75543;BME280;64129;53.508;10.476;2023-07-16T00:20:34;100301.63;;;20.95;65.08
75543;BME280;64129;53.508;10.476;2023-07-16T00:23:01;100301.63;;;20.95;65.07
75543;BME280;64129;53.508;10.476;2023-07-16T00:25:27;100304.03;;;20.86;65.06
75543;BME280;64129;53.508;10.476;2023-07-16T00:27:54;100320.28;;;20.61;67.29
75543;BME280;64129;53.508;10.476;2023-07-16T00:30:21;100330.03;;;20.51;67.28
75543;BME280;64129;53.508;10.476;2023-07-16T00:32:47;100349.44;;;20.56;67.35
75543;BME280;64129;53.508;10.476;2023-07-16T00:35:14;100355.69;;;20.44;68.60
75543;BME280;64129;53.508;10.476;2023-07-16T00:37:40;100331.09;;;20.48;67.60
75543;BME280;64129;53.508;10.476;2023-07-16T00:40:07;100329.03;;;20.52;67.86
75543;BME280;64129;53.508;10.476;2023-07-16T00:42:34;100318.44;;;20.36;68.32
75543;BME280;64129;53.508;10.476;2023-07-16T00:45:01;100328.06;;;20.53;68.18
75543;BME280;64129;53.508;10.476;2023-07-16T00:47:28;100367.09;;;20.35;68.82
75543;BME280;64129;53.508;10.476;2023-07-16T00:49:55;100345.47;;;20.49;68.87
75543;BME280;64129;53.508;10.476;2023-07-16T00:52:22;100363.03;;;20.42;69.19
75543;BME280;64129;53.508;10.476;2023-07-16T00:54:49;100381.50;;;20.48;68.76
75543;BME280;64129;53.508;10.476;2023-07-16T00:57:16;100383.63;;;20.43;69.42
75543;BME280;64129;53.508;10.476;2023-07-16T00:59:43;100390.66;;;20.45;69.42
75543;BME280;64129;53.508;10.476;2023-07-16T01:02:09;100372.28;;;20.38;68.05
75543;BME280;64129;53.508;10.476;2023-07-16T01:04:36;100363.22;;;20.39;69.70
75543;BME280;64129;53.508;10.476;2023-07-16T01:07:06;100380.16;;;20.28;70.76
75543;BME280;64129;53.508;10.476;2023-07-16T01:09:36;100388.03;;;20.18;71.58
75543;BME280;64129;53.508;10.476;2023-07-16T01:12:06;100374.94;;;20.00;73.74
75543;BME280;64129;53.508;10.476;2023-07-16T01:14:34;100380.13;;;20.03;70.92
75543;BME280;64129;53.508;10.476;2023-07-16T01:17:06;100358.44;;;20.04;73.61
75543;BME280;64129;53.508;10.476;2023-07-16T01:19:34;100348.53;;;20.17;73.67
75543;BME280;64129;53.508;10.476;2023-07-16T01:24:52;100338.16;;;19.99;74.13
75543;BME280;64129;53.508;10.476;2023-07-16T01:29:54;100365.34;;;19.96;74.27
75543;BME280;64129;53.508;10.476;2023-07-16T01:32:24;100355.19;;;19.99;74.47
75543;BME280;64129;53.508;10.476;2023-07-16T01:34:52;100351.66;;;20.11;74.04
75543;BME280;64129;53.508;10.476;2023-07-16T01:37:19;100357.81;;;20.13;73.84
75543;BME280;64129;53.508;10.476;2023-07-16T01:39:46;100367.72;;;20.00;74.12
75543;BME280;64129;53.508;10.476;2023-07-16T01:42:13;100371.00;;;20.18;72.63
75543;BME280;64129;53.508;10.476;2023-07-16T01:44:40;100377.56;;;20.27;72.56
75543;BME280;64129;53.508;10.476;2023-07-16T01:47:49;100385.38;;;19.91;75.46
75543;BME280;64129;53.508;10.476;2023-07-16T01:50:21;100398.53;;;19.96;75.03
75543;BME280;64129;53.508;10.476;2023-07-16T01:52:47;100402.22;;;19.95;74.80
75543;BME280;64129;53.508;10.476;2023-07-16T01:55:14;100383.56;;;20.05;74.20
75543;BME280;64129;53.508;10.476;2023-07-16T01:57:40;100374.81;;;20.01;73.68
75543;BME280;64129;53.508;10.476;2023-07-16T02:04:20;100389.91;;;19.91;74.70
75543;BME280;64129;53.508;10.476;2023-07-16T02:06:47;100381.50;;;19.83;74.81
75543;BME280;64129;53.508;10.476;2023-07-16T02:09:18;100395.22;;;19.66;76.05
75543;BME280;64129;53.508;10.476;2023-07-16T02:11:45;100398.66;;;19.68;76.15
75543;BME280;64129;53.508;10.476;2023-07-16T02:14:11;100425.00;;;19.77;74.46
75543;BME280;64129;53.508;10.476;2023-07-16T02:16:40;100447.78;;;19.58;76.12
75543;BME280;64129;53.508;10.476;2023-07-16T02:19:07;100426.75;;;19.78;75.55
75543;BME280;64129;53.508;10.476;2023-07-16T02:21:34;100425.47;;;19.83;76.29
75543;BME280;64129;53.508;10.476;2023-07-16T02:24:01;100402.34;;;19.67;75.64
75543;BME280;64129;53.508;10.476;2023-07-16T02:26:27;100395.84;;;19.56;77.88
75543;BME280;64129;53.508;10.476;2023-07-16T02:28:54;100393.91;;;19.58;77.73
75543;BME280;64129;53.508;10.476;2023-07-16T02:31:21;100433.28;;;19.74;75.95
75543;BME280;64129;53.508;10.476;2023-07-16T02:33:47;100451.06;;;19.35;73.26
75543;BME280;64129;53.508;10.476;2023-07-16T02:40:20;100402.63;;;19.21;74.78
75543;BME280;64129;53.508;10.476;2023-07-16T02:42:46;100392.81;;;19.20;75.18
75543;BME280;64129;53.508;10.476;2023-07-16T02:45:13;100402.66;;;18.92;76.95
75543;BME280;64129;53.508;10.476;2023-07-16T02:47:39;100407.09;;;18.93;77.61
75543;BME280;64129;53.508;10.476;2023-07-16T02:50:06;100397.66;;;19.15;77.22
75543;BME280;64129;53.508;10.476;2023-07-16T02:52:33;100390.03;;;19.07;77.56
75543;BME280;64129;53.508;10.476;2023-07-16T02:54:59;100390.53;;;18.99;79.25
75543;BME280;64129;53.508;10.476;2023-07-16T02:57:26;100396.72;;;18.87;80.40
75543;BME280;64129;53.508;10.476;2023-07-16T02:59:52;100403.44;;;18.66;81.41
75543;BME280;64129;53.508;10.476;2023-07-16T03:02:19;100404.00;;;18.71;81.27
75543;BME280;64129;53.508;10.476;2023-07-16T03:04:45;100398.66;;;18.85;80.52
75543;BME280;64129;53.508;10.476;2023-07-16T03:07:12;100410.63;;;18.51;83.02
75543;BME280;64129;53.508;10.476;2023-07-16T03:09:39;100411.31;;;18.69;82.57
75543;BME280;64129;53.508;10.476;2023-07-16T03:12:06;100400.44;;;18.70;82.16
75543;BME280;64129;53.508;10.476;2023-07-16T03:14:32;100405.06;;;18.68;82.72
75543;BME280;64129;53.508;10.476;2023-07-16T03:16:59;100397.06;;;18.53;82.94
75543;BME280;64129;53.508;10.476;2023-07-16T03:19:25;100399.50;;;18.72;81.44
75543;BME280;64129;53.508;10.476;2023-07-16T03:21:52;100387.66;;;18.60;83.25
75543;BME280;64129;53.508;10.476;2023-07-16T03:24:19;100395.06;;;18.70;82.68
75543;BME280;64129;53.508;10.476;2023-07-16T03:26:46;100399.00;;;18.51;82.84
75543;BME280;64129;53.508;10.476;2023-07-16T03:29:12;100399.66;;;18.54;82.83
75543;BME280;64129;53.508;10.476;2023-07-16T03:31:39;100395.47;;;18.64;82.13
75543;BME280;64129;53.508;10.476;2023-07-16T03:34:05;100407.44;;;18.59;82.96
75543;BME280;64129;53.508;10.476;2023-07-16T03:36:32;100409.94;;;18.48;84.00
75543;BME280;64129;53.508;10.476;2023-07-16T03:38:59;100408.31;;;18.59;82.48
75543;BME280;64129;53.508;10.476;2023-07-16T03:41:25;100408.78;;;18.52;81.21
75543;BME280;64129;53.508;10.476;2023-07-16T03:43:52;100423.97;;;18.53;82.30
75543;BME280;64129;53.508;10.476;2023-07-16T03:46:20;100411.53;;;18.36;82.76
75543;BME280;64129;53.508;10.476;2023-07-16T03:48:46;100419.34;;;18.41;82.80
75543;BME280;64129;53.508;10.476;2023-07-16T03:51:13;100425.63;;;18.25;83.55
75543;BME280;64129;53.508;10.476;2023-07-16T03:53:40;100428.31;;;18.25;83.04
75543;BME280;64129;53.508;10.476;2023-07-16T03:56:06;100433.22;;;18.33;82.72
75543;BME280;64129;53.508;10.476;2023-07-16T03:58:34;100432.00;;;18.38;82.61
75543;BME280;64129;53.508;10.476;2023-07-16T04:01:01;100439.03;;;18.41;81.72
75543;BME280;64129;53.508;10.476;2023-07-16T04:03:28;100439.81;;;18.43;81.03
75543;BME280;64129;53.508;10.476;2023-07-16T04:06:08;100435.63;;;18.37;80.39
75543;BME280;64129;53.508;10.476;2023-07-16T04:08:37;100441.88;;;18.38;81.63
75543;BME280;64129;53.508;10.476;2023-07-16T04:11:05;100447.03;;;18.57;80.09
75543;BME280;64129;53.508;10.476;2023-07-16T04:13:31;100439.28;;;18.36;80.83
75543;BME280;64129;53.508;10.476;2023-07-16T04:15:58;100453.84;;;18.18;81.59
75543;BME280;64129;53.508;10.476;2023-07-16T04:18:25;100468.78;;;18.38;78.99
75543;BME280;64129;53.508;10.476;2023-07-16T04:20:51;100469.81;;;18.35;81.57
75543;BME280;64129;53.508;10.476;2023-07-16T04:23:19;100469.72;;;18.23;81.35
75543;BME280;64129;53.508;10.476;2023-07-16T04:25:46;100482.16;;;18.39;80.24
75543;BME280;64129;53.508;10.476;2023-07-16T04:28:12;100486.69;;;18.23;82.77
75543;BME280;64129;53.508;10.476;2023-07-16T04:30:39;100481.31;;;18.23;82.18
75543;BME280;64129;53.508;10.476;2023-07-16T04:33:05;100487.84;;;18.19;81.78
75543;BME280;64129;53.508;10.476;2023-07-16T04:35:32;100480.56;;;18.21;82.41
75543;BME280;64129;53.508;10.476;2023-07-16T04:37:59;100487.44;;;18.11;83.37
75543;BME280;64129;53.508;10.476;2023-07-16T04:40:28;100498.81;;;18.30;82.77
75543;BME280;64129;53.508;10.476;2023-07-16T04:42:55;100492.09;;;18.23;84.01
75543;BME280;64129;53.508;10.476;2023-07-16T04:45:21;100491.72;;;18.29;82.91
75543;BME280;64129;53.508;10.476;2023-07-16T04:47:48;100500.19;;;18.37;82.13
75543;BME280;64129;53.508;10.476;2023-07-16T04:50:14;100502.56;;;18.28;82.95
75543;BME280;64129;53.508;10.476;2023-07-16T04:52:41;100499.56;;;18.18;83.59
75543;BME280;64129;53.508;10.476;2023-07-16T04:55:07;100504.34;;;18.43;81.97
75543;BME280;64129;53.508;10.476;2023-07-16T04:57:34;100499.41;;;18.35;83.26
75543;BME280;64129;53.508;10.476;2023-07-16T05:00:01;100500.06;;;18.25;83.49
75543;BME280;64129;53.508;10.476;2023-07-16T05:02:27;100501.88;;;18.24;84.06
75543;BME280;64129;53.508;10.476;2023-07-16T05:04:54;100499.47;;;18.50;81.00
75543;BME280;64129;53.508;10.476;2023-07-16T05:07:20;100495.69;;;18.08;83.57
75543;BME280;64129;53.508;10.476;2023-07-16T05:09:47;100498.09;;;18.43;80.29
75543;BME280;64129;53.508;10.476;2023-07-16T05:12:13;100507.84;;;18.29;82.93
75543;BME280;64129;53.508;10.476;2023-07-16T05:14:49;100508.34;;;18.36;80.57
75543;BME280;64129;53.508;10.476;2023-07-16T05:17:15;100503.25;;;18.31;81.39
75543;BME280;64129;53.508;10.476;2023-07-16T05:19:42;100502.00;;;18.37;83.48
75543;BME280;64129;53.508;10.476;2023-07-16T05:22:09;100493.91;;;18.53;81.81
75543;BME280;64129;53.508;10.476;2023-07-16T05:24:35;100511.09;;;18.50;81.94
75543;BME280;64129;53.508;10.476;2023-07-16T05:27:02;100513.50;;;18.55;81.04
75543;BME280;64129;53.508;10.476;2023-07-16T05:29:29;100508.06;;;18.70;81.57
75543;BME280;64129;53.508;10.476;2023-07-16T05:31:55;100516.00;;;18.74;79.74
75543;BME280;64129;53.508;10.476;2023-07-16T05:34:22;100514.50;;;18.68;81.10
75543;BME280;64129;53.508;10.476;2023-07-16T05:36:48;100510.84;;;18.69;81.58
75543;BME280;64129;53.508;10.476;2023-07-16T05:39:15;100521.81;;;18.66;82.21
75543;BME280;64129;53.508;10.476;2023-07-16T05:41:42;100528.19;;;18.79;82.43
75543;BME280;64129;53.508;10.476;2023-07-16T05:44:09;100524.94;;;19.02;80.70
75543;BME280;64129;53.508;10.476;2023-07-16T05:46:36;100520.91;;;18.95;78.17
75543;BME280;64129;53.508;10.476;2023-07-16T05:49:02;100523.97;;;18.89;78.18
75543;BME280;64129;53.508;10.476;2023-07-16T05:51:29;100526.75;;;18.88;79.01
75543;BME280;64129;53.508;10.476;2023-07-16T05:53:56;100526.75;;;18.88;78.48
75543;BME280;64129;53.508;10.476;2023-07-16T05:56:23;100527.53;;;19.04;77.91
75543;BME280;64129;53.508;10.476;2023-07-16T05:58:49;100530.13;;;19.06;77.88
75543;BME280;64129;53.508;10.476;2023-07-16T06:01:16;100532.06;;;19.18;75.64
75543;BME280;64129;53.508;10.476;2023-07-16T06:03:42;100532.66;;;19.23;75.94
75543;BME280;64129;53.508;10.476;2023-07-16T06:06:09;100540.34;;;19.29;76.43
75543;BME280;64129;53.508;10.476;2023-07-16T06:08:36;100537.25;;;19.35;76.08
75543;BME280;64129;53.508;10.476;2023-07-16T06:11:02;100544.16;;;19.39;74.70
75543;BME280;64129;53.508;10.476;2023-07-16T06:13:30;100544.28;;;19.52;74.86
75543;BME280;64129;53.508;10.476;2023-07-16T06:15:56;100546.72;;;19.56;74.93
75543;BME280;64129;53.508;10.476;2023-07-16T06:18:23;100553.94;;;19.56;75.07
75543;BME280;64129;53.508;10.476;2023-07-16T06:20:50;100553.44;;;19.63;73.51
75543;BME280;64129;53.508;10.476;2023-07-16T06:23:18;100560.75;;;19.61;73.72
75543;BME280;64129;53.508;10.476;2023-07-16T06:25:44;100555.16;;;19.79;74.18
75543;BME280;64129;53.508;10.476;2023-07-16T06:28:13;100560.34;;;19.68;74.29
75543;BME280;64129;53.508;10.476;2023-07-16T06:30:40;100553.31;;;19.79;73.67
75543;BME280;64129;53.508;10.476;2023-07-16T06:33:06;100564.56;;;19.86;72.64
75543;BME280;64129;53.508;10.476;2023-07-16T06:35:33;100572.41;;;20.03;73.53
75543;BME280;64129;53.508;10.476;2023-07-16T06:38:00;100571.75;;;20.00;73.13
75543;BME280;64129;53.508;10.476;2023-07-16T06:40:28;100569.78;;;20.16;72.45
75543;BME280;64129;53.508;10.476;2023-07-16T06:42:55;100566.59;;;20.09;71.86
75543;BME280;64129;53.508;10.476;2023-07-16T06:45:22;100574.66;;;20.23;72.19
75543;BME280;64129;53.508;10.476;2023-07-16T06:47:48;100576.81;;;20.18;71.33
75543;BME280;64129;53.508;10.476;2023-07-16T06:50:15;100583.31;;;20.29;69.35
75543;BME280;64129;53.508;10.476;2023-07-16T06:52:42;100569.19;;;20.11;67.85
75543;BME280;64129;53.508;10.476;2023-07-16T06:55:09;100580.63;;;20.29;66.74
75543;BME280;64129;53.508;10.476;2023-07-16T06:57:35;100589.25;;;20.48;65.93
75543;BME280;64129;53.508;10.476;2023-07-16T07:00:02;100585.13;;;20.42;65.88
75543;BME280;64129;53.508;10.476;2023-07-16T07:02:30;100580.44;;;20.59;65.69
75543;BME280;64129;53.508;10.476;2023-07-16T07:04:56;100581.81;;;20.51;65.38
75543;BME280;64129;53.508;10.476;2023-07-16T07:07:24;100570.00;;;20.40;65.34
75543;BME280;64129;53.508;10.476;2023-07-16T07:09:51;100587.31;;;20.50;64.20
75543;BME280;64129;53.508;10.476;2023-07-16T07:12:17;100570.28;;;20.62;63.48
75543;BME280;64129;53.508;10.476;2023-07-16T07:14:46;100570.94;;;20.66;62.66
75543;BME280;64129;53.508;10.476;2023-07-16T07:17:13;100579.91;;;20.66;63.17
75543;BME280;64129;53.508;10.476;2023-07-16T07:19:39;100579.09;;;21.04;62.83
75543;BME280;64129;53.508;10.476;2023-07-16T07:22:06;100579.91;;;21.31;60.97
75543;BME280;64129;53.508;10.476;2023-07-16T07:24:32;100577.97;;;21.33;62.52
75543;BME280;64129;53.508;10.476;2023-07-16T07:26:59;100580.63;;;21.08;61.72
75543;BME280;64129;53.508;10.476;2023-07-16T07:29:25;100577.81;;;20.97;62.98
75543;BME280;64129;53.508;10.476;2023-07-16T07:31:52;100580.75;;;21.19;61.13
75543;BME280;64129;53.508;10.476;2023-07-16T07:34:19;100577.06;;;21.20;61.73
75543;BME280;64129;53.508;10.476;2023-07-16T07:36:45;100573.22;;;21.24;62.75
75543;BME280;64129;53.508;10.476;2023-07-16T07:39:12;100574.88;;;21.00;61.85
75543;BME280;64129;53.508;10.476;2023-07-16T07:41:43;100575.97;;;20.84;61.89
75543;BME280;64129;53.508;10.476;2023-07-16T07:44:09;100583.75;;;21.02;61.33
75543;BME280;64129;53.508;10.476;2023-07-16T07:46:36;100585.31;;;20.79;60.98
75543;BME280;64129;53.508;10.476;2023-07-16T07:49:02;100584.59;;;20.90;57.79
75543;BME280;64129;53.508;10.476;2023-07-16T07:51:29;100597.25;;;21.02;57.64
75543;BME280;64129;53.508;10.476;2023-07-16T07:53:55;100584.16;;;20.83;58.57
75543;BME280;64129;53.508;10.476;2023-07-16T07:56:22;100588.28;;;20.89;58.97
75543;BME280;64129;53.508;10.476;2023-07-16T07:58:48;100586.78;;;21.10;59.13
75543;BME280;64129;53.508;10.476;2023-07-16T08:01:15;100593.28;;;21.20;57.48
75543;BME280;64129;53.508;10.476;2023-07-16T08:03:41;100584.88;;;21.25;58.64
75543;BME280;64129;53.508;10.476;2023-07-16T08:06:08;100590.50;;;21.34;57.03
75543;BME280;64129;53.508;10.476;2023-07-16T08:08:35;100596.97;;;21.44;56.36
75543;BME280;64129;53.508;10.476;2023-07-16T08:11:01;100596.88;;;21.33;57.85
75543;BME280;64129;53.508;10.476;2023-07-16T08:13:28;100580.56;;;21.97;56.49
75543;BME280;64129;53.508;10.476;2023-07-16T08:15:54;100594.91;;;22.23;55.50
75543;BME280;64129;53.508;10.476;2023-07-16T08:18:21;100583.72;;;22.51;56.29
75543;BME280;64129;53.508;10.476;2023-07-16T08:20:47;100583.03;;;22.60;55.06
75543;BME280;64129;53.508;10.476;2023-07-16T08:23:14;100598.59;;;22.22;54.01
75543;BME280;64129;53.508;10.476;2023-07-16T08:25:41;100596.03;;;22.07;54.27
75543;BME280;64129;53.508;10.476;2023-07-16T08:28:08;100596.28;;;21.79;54.74
75543;BME280;64129;53.508;10.476;2023-07-16T08:30:36;100590.84;;;22.52;54.00
75543;BME280;64129;53.508;10.476;2023-07-16T08:33:02;100589.97;;;22.76;52.56
75543;BME280;64129;53.508;10.476;2023-07-16T08:35:29;100598.72;;;23.03;51.67
75543;BME280;64129;53.508;10.476;2023-07-16T08:37:56;100604.38;;;23.11;47.63
75543;BME280;64129;53.508;10.476;2023-07-16T08:40:22;100583.25;;;23.27;47.72
75543;BME280;64129;53.508;10.476;2023-07-16T08:42:49;100586.75;;;23.63;48.57
75543;BME280;64129;53.508;10.476;2023-07-16T08:45:15;100598.94;;;24.02;47.89
75543;BME280;64129;53.508;10.476;2023-07-16T08:47:42;100588.44;;;23.53;48.41
75543;BME280;64129;53.508;10.476;2023-07-16T08:50:10;100585.22;;;23.25;48.31
75543;BME280;64129;53.508;10.476;2023-07-16T08:52:37;100594.56;;;23.21;48.81
75543;BME280;64129;53.508;10.476;2023-07-16T08:55:04;100590.56;;;22.68;48.15
75543;BME280;64129;53.508;10.476;2023-07-16T08:57:31;100592.25;;;22.82;49.32
75543;BME280;64129;53.508;10.476;2023-07-16T08:59:58;100595.31;;;23.34;49.21
75543;BME280;64129;53.508;10.476;2023-07-16T09:02:25;100593.66;;;23.78;47.13
75543;BME280;64129;53.508;10.476;2023-07-16T09:04:52;100604.94;;;23.27;48.25
75543;BME280;64129;53.508;10.476;2023-07-16T09:07:18;100622.66;;;22.85;47.77
75543;BME280;64129;53.508;10.476;2023-07-16T09:09:59;100596.97;;;22.91;48.31
75543;BME280;64129;53.508;10.476;2023-07-16T09:12:27;100610.66;;;22.77;48.05
75543;BME280;64129;53.508;10.476;2023-07-16T09:14:53;100611.75;;;22.50;49.54
75543;BME280;64129;53.508;10.476;2023-07-16T09:17:24;100603.72;;;23.54;48.46
75543;BME280;64129;53.508;10.476;2023-07-16T09:19:51;100607.72;;;23.61;47.81
75543;BME280;64129;53.508;10.476;2023-07-16T09:22:19;100607.28;;;23.54;46.80
75543;BME280;64129;53.508;10.476;2023-07-16T09:24:46;100616.31;;;23.77;45.78
75543;BME280;64129;53.508;10.476;2023-07-16T09:27:13;100622.38;;;24.57;44.75
75543;BME280;64129;53.508;10.476;2023-07-16T09:29:40;100630.00;;;24.09;43.44
75543;BME280;64129;53.508;10.476;2023-07-16T09:32:07;100624.72;;;23.74;44.09
75543;BME280;64129;53.508;10.476;2023-07-16T09:34:34;100625.31;;;22.98;45.39
75543;BME280;64129;53.508;10.476;2023-07-16T09:37:01;100643.63;;;22.70;46.06
75543;BME280;64129;53.508;10.476;2023-07-16T09:39:28;100640.00;;;24.09;45.51
75543;BME280;64129;53.508;10.476;2023-07-16T09:41:54;100637.84;;;24.46;43.67
75543;BME280;64129;53.508;10.476;2023-07-16T09:44:24;100640.72;;;24.76;44.60
75543;BME280;64129;53.508;10.476;2023-07-16T09:46:50;100633.38;;;24.88;42.43
75543;BME280;64129;53.508;10.476;2023-07-16T09:49:17;100631.03;;;24.51;40.00
75543;BME280;64129;53.508;10.476;2023-07-16T09:51:44;100627.78;;;24.69;39.91
75543;BME280;64129;53.508;10.476;2023-07-16T09:54:12;100633.56;;;25.07;41.19
75543;BME280;64129;53.508;10.476;2023-07-16T09:56:50;100635.88;;;24.80;40.81
75543;BME280;64129;53.508;10.476;2023-07-16T09:59:20;100648.63;;;24.36;38.87
75543;BME280;64129;53.508;10.476;2023-07-16T10:01:49;100652.19;;;24.37;38.56
75543;BME280;64129;53.508;10.476;2023-07-16T10:04:20;100651.88;;;25.05;38.08
75543;BME280;64129;53.508;10.476;2023-07-16T10:06:55;100650.69;;;25.40;38.75
75543;BME280;64129;53.508;10.476;2023-07-16T10:09:35;100667.03;;;24.76;38.89
75543;BME280;64129;53.508;10.476;2023-07-16T10:12:11;100666.06;;;24.66;38.35
75543;BME280;64129;53.508;10.476;2023-07-16T10:14:43;100668.44;;;25.44;38.06
75543;BME280;64129;53.508;10.476;2023-07-16T10:20:00;100663.94;;;25.12;37.07
75543;BME280;64129;53.508;10.476;2023-07-16T10:22:39;100673.84;;;26.16;37.89
75543;BME280;64129;53.508;10.476;2023-07-16T10:25:10;100664.56;;;26.19;37.38
75543;BME280;64129;53.508;10.476;2023-07-16T10:27:49;100673.09;;;25.53;37.06
75543;BME280;64129;53.508;10.476;2023-07-16T10:30:17;100665.59;;;25.97;37.24
75543;BME280;64129;53.508;10.476;2023-07-16T10:32:44;100667.13;;;26.70;36.29
75543;BME280;64129;53.508;10.476;2023-07-16T10:35:11;100666.31;;;25.99;36.09
75543;BME280;64129;53.508;10.476;2023-07-16T10:37:39;100682.31;;;26.13;35.44
75543;BME280;64129;53.508;10.476;2023-07-16T10:40:10;100674.47;;;26.29;35.74
75543;BME280;64129;53.508;10.476;2023-07-16T10:42:40;100684.19;;;25.40;36.55
75543;BME280;64129;53.508;10.476;2023-07-16T10:45:07;100677.03;;;25.91;38.72
75543;BME280;64129;53.508;10.476;2023-07-16T10:47:36;100684.13;;;26.03;36.64
75543;BME280;64129;53.508;10.476;2023-07-16T10:50:09;100688.06;;;25.27;36.28
75543;BME280;64129;53.508;10.476;2023-07-16T10:52:36;100705.16;;;26.01;35.57
75543;BME280;64129;53.508;10.476;2023-07-16T10:55:06;100696.47;;;26.07;36.47
75543;BME280;64129;53.508;10.476;2023-07-16T10:57:33;100699.63;;;25.40;36.19
75543;BME280;64129;53.508;10.476;2023-07-16T11:00:00;100691.09;;;25.96;36.93
75543;BME280;64129;53.508;10.476;2023-07-16T11:02:26;100703.72;;;25.13;37.25
75543;BME280;64129;53.508;10.476;2023-07-16T11:04:54;100705.81;;;26.14;36.76
75543;BME280;64129;53.508;10.476;2023-07-16T11:07:21;100701.44;;;26.82;35.80
75543;BME280;64129;53.508;10.476;2023-07-16T11:09:52;100692.47;;;26.11;35.64
75543;BME280;64129;53.508;10.476;2023-07-16T11:12:21;100690.06;;;26.58;34.84
75543;BME280;64129;53.508;10.476;2023-07-16T11:14:52;100694.56;;;26.97;34.77
75543;BME280;64129;53.508;10.476;2023-07-16T11:17:19;100699.00;;;26.89;34.91
75543;BME280;64129;53.508;10.476;2023-07-16T11:19:48;100709.28;;;26.66;36.58
75543;BME280;64129;53.508;10.476;2023-07-16T11:22:15;100702.47;;;27.00;36.34
75543;BME280;64129;53.508;10.476;2023-07-16T11:24:44;100715.53;;;26.07;36.44
75543;BME280;64129;53.508;10.476;2023-07-16T11:29:48;100704.03;;;26.74;34.55
75543;BME280;64129;53.508;10.476;2023-07-16T11:32:32;100705.16;;;26.81;35.84
75543;BME280;64129;53.508;10.476;2023-07-16T11:35:00;100709.47;;;26.74;35.64
75543;BME280;64129;53.508;10.476;2023-07-16T11:37:29;100701.75;;;27.37;34.60
75543;BME280;64129;53.508;10.476;2023-07-16T11:40:07;100712.84;;;28.39;34.77
75543;BME280;64129;53.508;10.476;2023-07-16T11:42:35;100690.06;;;28.20;31.93
75543;BME280;64129;53.508;10.476;2023-07-16T11:45:03;100707.00;;;27.87;34.13
75543;BME280;64129;53.508;10.476;2023-07-16T11:47:30;100710.66;;;27.49;33.70
75543;BME280;64129;53.508;10.476;2023-07-16T11:49:58;100713.25;;;27.31;33.98
75543;BME280;64129;53.508;10.476;2023-07-16T11:52:26;100715.66;;;26.86;33.62
75543;BME280;64129;53.508;10.476;2023-07-16T11:54:56;100720.28;;;27.24;33.44
75543;BME280;64129;53.508;10.476;2023-07-16T11:57:23;100716.41;;;27.17;35.66
75543;BME280;64129;53.508;10.476;2023-07-16T11:59:49;100724.63;;;26.67;35.39
75543;BME280;64129;53.508;10.476;2023-07-16T12:02:16;100734.22;;;26.21;35.56
75543;BME280;64129;53.508;10.476;2023-07-16T12:04:43;100723.00;;;27.62;34.23
75543;BME280;64129;53.508;10.476;2023-07-16T12:07:09;100724.72;;;27.63;34.34
75543;BME280;64129;53.508;10.476;2023-07-16T12:09:36;100746.34;;;25.87;35.88
75543;BME280;64129;53.508;10.476;2023-07-16T12:12:03;100745.28;;;25.36;36.40
75543;BME280;64129;53.508;10.476;2023-07-16T12:14:30;100733.63;;;27.65;34.63
75543;BME280;64129;53.508;10.476;2023-07-16T12:16:57;100731.75;;;25.88;37.36
75543;BME280;64129;53.508;10.476;2023-07-16T12:19:24;100726.19;;;26.20;36.24
75543;BME280;64129;53.508;10.476;2023-07-16T12:21:51;100744.03;;;26.33;36.20
75543;BME280;64129;53.508;10.476;2023-07-16T12:24:19;100758.00;;;25.36;36.59
75543;BME280;64129;53.508;10.476;2023-07-16T12:26:46;100748.06;;;25.46;37.38
75543;BME280;64129;53.508;10.476;2023-07-16T12:29:12;100734.38;;;27.10;35.58
75543;BME280;64129;53.508;10.476;2023-07-16T12:31:39;100750.97;;;25.54;37.25
75543;BME280;64129;53.508;10.476;2023-07-16T12:34:05;100742.31;;;26.72;35.40
75543;BME280;64129;53.508;10.476;2023-07-16T12:36:32;100745.72;;;25.73;36.77
75543;BME280;64129;53.508;10.476;2023-07-16T12:38:58;100739.94;;;27.37;34.75
75543;BME280;64129;53.508;10.476;2023-07-16T12:41:26;100743.63;;;26.97;35.64
75543;BME280;64129;53.508;10.476;2023-07-16T12:43:53;100749.34;;;28.10;33.36
75543;BME280;64129;53.508;10.476;2023-07-16T12:46:19;100737.59;;;28.65;33.13
75543;BME280;64129;53.508;10.476;2023-07-16T12:48:46;100732.13;;;29.10;31.89
75543;BME280;64129;53.508;10.476;2023-07-16T12:51:12;100761.41;;;25.91;36.21
75543;BME280;64129;53.508;10.476;2023-07-16T12:53:39;100758.34;;;26.66;36.38
75543;BME280;64129;53.508;10.476;2023-07-16T12:56:06;100769.94;;;25.65;36.40
75543;BME280;64129;53.508;10.476;2023-07-16T12:58:32;100792.16;;;25.17;37.32
75543;BME280;64129;53.508;10.476;2023-07-16T13:00:59;100796.16;;;25.13;37.18